Aeroporto :
LOGIN :

Iscrizione | Disclaimer

   EN    FR    IT 

 










Sommario :    VFR   VFR Marginale   IFR   IFR Intensivo   IFR Molto Intensivo
Visibilità : 
Base nubi : 
>= 8 km
>= 3000ft
5 / 8 km
1000 / 3000 ft
1500m / 5 km
500 / 1000 ft
800 / 1500m
200 / 500 ft
< 800m
< 200 ft
Simboli :   Temporali  Nebbia  Neve Forte  Precipitazioni Forti  Vento > 20 kt
SIGMETs :   Varie  Temporali  Ghiacco  Turbolenza  Onda orograficha  Ceneri Vulcaniche






- Altitudine del aeroporto : 1367 ft
- Codice IATA : FDH


EDNY - Friedrichshafen

ULTIMO METAR :
  • 080320Z AUTO VRB01KT 9999 // OVC039/// 06/03 Q1018

METARs OBSOLETI :
  • 080250Z AUTO VRB02KT 9999 // BKN039/// 06/03 Q1018
  • 080220Z AUTO VRB02KT 9999 // OVC040/// 06/03 Q1018
  • 080150Z AUTO 23003KT 9999 // OVC045/// 06/03 Q1019
  • 080120Z AUTO VRB02KT 9999 // OVC045/// 07/04 Q1019
  • 080050Z AUTO 00000KT 9999 // OVC046/// 07/04 Q1019

TAF TAF EDNY
Valido dal 08 a 00 ore il 09 a 00 ore UTC


072300Z 0800/0824 23004KT 9999 SCT040
BECMG 0809/0811 24009KT
TEMPO 0819/0822 RADZ
TEMPO 0822/0824 26015G30KT



MetMap, La meteo Aeronautica in un colpo d'occhio ! - Copyright ORBIFLY Dicembre 2007 - Disclaimer

ORBIFLY MET'MAP TEAM :

Programmazione e sviluppo : Alexandra Zaïnal
Concezione : Baudouin d'Aumeries
Aiuto per la programmazione : Marc-Olivier Méhu
Supporto tecnico e logistico : Manuel Goepfert
Aiuto per la traduzione : Arnaldo La Scala

Contatto : metmap@orbifly.com




FONTI E CREDITI :

   NOAA